CheckWX is a tool to help pilots better visualize weather data.  It is not intended as a substitute for an official pre-flight weather briefing.

05:12:33 UTC

KHVR TAF
Havre City-County Airport
Havre, Montana, USA
KHVR 222331Z 2300/2324 23007KT P6SM FEW250 FM230600 17005KT P6SM VCFG SKC TEMPO 2311/2314 4SM BR SCT003 FM231600 26008KT P6SM FEW150 SCT250 FM232000 30010KT P6SM SCT150 BKN250

Mar-23@
00:00 UTC

Mar-23 @ 00:00 UTC

Mar-23@
06:00 UTC

Mar-23 @ 06:00 UTC

KHVR 222331Z 2300/2324 23007KT P6SM FEW250
Wind
  • 230° at 7 KTS
Cloud Levels
  • Few at 25,000' AGL

Mar-23@
06:00 UTC

Mar-23 @ 06:00 UTC

Mar-23@
16:00 UTC

Mar-23 @ 16:00 UTC

FM230600 17005KT P6SM VCFG SKC

From

From Standard forecast or significant change

Wind
  • 170° at 5 KTS
Conditions
Area Fog
Cloud Levels
  • Clear skies

Mar-23@
11:00 UTC

Mar-23 @ 11:00 UTC

Mar-23@
14:00 UTC

Mar-23 @ 14:00 UTC

TEMPO 2311/2314 4SM BR SCT003

Temporary

Temporary Changes expected for less than half the time period

Conditions
Mist
Cloud Levels
  • Scattered at 300' AGL

Mar-23@
16:00 UTC

Mar-23 @ 16:00 UTC

Mar-23@
20:00 UTC

Mar-23 @ 20:00 UTC

FM231600 26008KT P6SM FEW150 SCT250

From

From Standard forecast or significant change

Wind
  • 260° at 8 KTS
Cloud Levels
  • Few at 15,000' AGL
  • Scattered at 25,000' AGL

Mar-23@
20:00 UTC

Mar-23 @ 20:00 UTC

Mar-24@
00:00 UTC

Mar-24 @ 00:00 UTC

FM232000 30010KT P6SM SCT150 BKN250

From

From Standard forecast or significant change

Wind
  • 300° at 10 KTS
Cloud Levels
  • Scattered at 15,000' AGL
  • Broken at 25,000' AGL